createdAt,value
2019-05-06T00:01:15.020Z,31.22
2019-05-06T00:03:44.288Z,31.04
2019-05-06T00:06:14.532Z,30.53
2019-05-06T00:08:44.091Z,30.45
2019-05-06T00:11:14.214Z,30.15
2019-05-06T00:13:44.541Z,30.45
2019-05-06T00:16:14.451Z,30.73
2019-05-06T00:18:44.892Z,30.43
2019-05-06T00:21:14.902Z,30.52
2019-05-06T00:23:48.751Z,30.47
2019-05-06T00:26:24.336Z,30.65
2019-05-06T00:28:55.206Z,30.74
2019-05-06T00:31:25.233Z,30.68
2019-05-06T00:33:54.473Z,30.98
2019-05-06T00:36:23.902Z,30.61
2019-05-06T00:38:54.816Z,30.23
2019-05-06T00:41:28.541Z,30.26
2019-05-06T00:43:57.730Z,30.38
2019-05-06T00:46:26.997Z,29.93
2019-05-06T00:48:56.236Z,30.70
2019-05-06T00:51:25.531Z,31.08
2019-05-06T00:53:59.123Z,30.81
2019-05-06T00:56:28.366Z,31.35
2019-05-06T00:58:57.578Z,31.04
2019-05-06T01:01:29.630Z,32.00
2019-05-06T01:03:57.779Z,32.26
2019-05-06T01:06:27.017Z,32.40
2019-05-06T01:08:56.267Z,32.06
2019-05-06T01:11:25.507Z,32.96
2019-05-06T01:13:56.351Z,32.70
2019-05-06T01:16:25.690Z,32.41
2019-05-06T01:18:55.035Z,32.36
2019-05-06T01:21:24.201Z,32.13
2019-05-06T01:23:54.525Z,31.76
2019-05-06T01:26:24.365Z,32.66
2019-05-06T01:28:54.650Z,31.97
2019-05-06T01:31:28.908Z,32.02
2019-05-06T01:33:55.360Z,31.87
2019-05-06T01:36:25.003Z,31.56
2019-05-06T01:38:56.118Z,31.37
2019-05-06T01:41:39.389Z,31.25
2019-05-06T01:44:08.662Z,31.77
2019-05-06T01:46:37.926Z,31.92
2019-05-06T01:49:07.188Z,31.89
2019-05-06T01:51:36.524Z,32.34
2019-05-06T01:54:05.813Z,32.16
2019-05-06T01:56:35.056Z,32.54
2019-05-06T01:59:04.737Z,32.63
2019-05-06T02:01:34.400Z,33.12
2019-05-06T02:04:04.414Z,32.92
2019-05-06T02:06:34.503Z,33.44
2019-05-06T02:09:05.360Z,33.78
2019-05-06T02:11:34.550Z,33.54
2019-05-06T02:14:04.804Z,34.41
2019-05-06T02:16:34.478Z,34.26
2019-05-06T02:19:04.255Z,33.77
2019-05-06T02:21:35.179Z,34.17
2019-05-06T02:24:15.690Z,34.28
2019-05-06T02:26:45.003Z,34.74
2019-05-06T02:29:34.098Z,34.49
2019-05-06T02:32:17.174Z,34.54
2019-05-06T02:34:37.478Z,33.73
2019-05-06T02:37:19.413Z,33.56
2019-05-06T02:39:48.643Z,33.18
2019-05-06T02:42:17.873Z,33.09
2019-05-06T02:44:47.200Z,32.77
2019-05-06T02:47:18.148Z,33.25
2019-05-06T02:49:49.028Z,33.53
2019-05-06T02:52:18.203Z,33.06
2019-05-06T02:54:47.498Z,33.30
2019-05-06T02:57:16.675Z,33.14
2019-05-06T02:59:45.840Z,32.75
2019-05-06T03:02:15.185Z,32.50
2019-05-06T03:04:44.379Z,32.30
2019-05-06T03:07:14.482Z,32.47
2019-05-06T03:09:44.685Z,31.88
2019-05-06T03:12:14.164Z,31.81
2019-05-06T03:14:43.900Z,32.14
2019-05-06T03:17:14.244Z,31.61
2019-05-06T03:19:45.941Z,31.77
2019-05-06T03:22:34.472Z,31.56
2019-05-06T03:25:06.961Z,31.94
2019-05-06T03:27:35.351Z,32.33
2019-05-06T03:30:06.669Z,33.43
2019-05-06T03:32:38.163Z,32.96
2019-05-06T03:35:31.454Z,32.31
2019-05-06T03:37:38.496Z,32.36
2019-05-06T03:40:07.770Z,32.13
2019-05-06T03:42:36.946Z,31.91
2019-05-06T03:45:08.974Z,31.96
2019-05-06T03:47:57.945Z,31.43
2019-05-06T03:50:27.198Z,31.85
2019-05-06T03:52:56.684Z,31.71
2019-05-06T03:55:26.443Z,30.90
2019-05-06T03:57:57.329Z,30.74
2019-05-06T04:00:26.625Z,30.56
2019-05-06T04:02:56.060Z,30.33
2019-05-06T04:05:25.456Z,29.81
2019-05-06T04:07:54.715Z,30.58
2019-05-06T04:10:24.010Z,30.82
2019-05-06T04:12:53.909Z,30.23
2019-05-06T04:15:26.813Z,30.93
2019-05-06T04:17:56.094Z,30.97
2019-05-06T04:20:26.985Z,30.98
2019-05-06T04:22:57.891Z,30.83
2019-05-06T04:25:43.200Z,33.21
2019-05-06T04:28:19.158Z,32.17
2019-05-06T04:30:49.018Z,32.93
2019-05-06T04:33:18.382Z,32.77
2019-05-06T04:35:47.561Z,32.44
2019-05-06T04:38:16.869Z,32.47
2019-05-06T04:40:46.140Z,32.33
2019-05-06T04:43:15.487Z,33.18
2019-05-06T04:45:44.786Z,33.59
2019-05-06T04:48:14.645Z,32.32
2019-05-06T04:50:44.673Z,31.04
2019-05-06T04:53:14.096Z,30.97
2019-05-06T04:55:43.984Z,30.28
2019-05-06T04:58:13.916Z,30.14
2019-05-06T05:00:44.431Z,28.92
2019-05-06T05:03:14.929Z,30.49
2019-05-06T05:05:45.075Z,30.61
2019-05-06T05:08:14.506Z,30.67
2019-05-06T05:11:00.530Z,30.75
2019-05-06T05:13:46.498Z,31.29
2019-05-06T05:16:33.672Z,31.82
2019-05-06T05:19:07.240Z,30.83
2019-05-06T05:21:36.437Z,31.19
2019-05-06T05:24:05.787Z,31.06
2019-05-06T05:26:34.990Z,31.21
2019-05-06T05:29:04.299Z,31.40
2019-05-06T05:31:34.035Z,31.91
2019-05-06T05:34:03.254Z,32.07
2019-05-06T05:36:32.898Z,32.75
2019-05-06T05:39:03.309Z,33.36
2019-05-06T05:41:33.166Z,32.63
2019-05-06T05:44:16.183Z,32.29
2019-05-06T05:46:45.476Z,32.65
2019-05-06T05:49:24.436Z,32.68
2019-05-06T05:51:53.490Z,30.96
2019-05-06T05:54:23.275Z,31.11
2019-05-06T05:56:53.054Z,32.18
2019-05-06T05:59:24.405Z,31.62
2019-05-06T06:01:54.174Z,30.72
2019-05-06T06:04:23.364Z,31.75
2019-05-06T06:06:52.617Z,31.64
2019-05-06T06:09:23.660Z,30.91
2019-05-06T06:11:54.497Z,31.46
2019-05-06T06:14:25.478Z,31.30
2019-05-06T06:16:56.321Z,30.32
2019-05-06T06:19:29.915Z,31.07
2019-05-06T06:22:02.595Z,30.58
2019-05-06T06:24:33.478Z,31.49
2019-05-06T06:27:03.242Z,31.45
2019-05-06T06:29:32.623Z,32.27
2019-05-06T06:32:09.117Z,31.95
2019-05-06T06:34:46.428Z,32.04
2019-05-06T06:37:33.734Z,31.24
2019-05-06T06:40:04.548Z,31.90
2019-05-06T06:42:33.794Z,31.64
2019-05-06T06:45:03.706Z,30.72
2019-05-06T06:47:33.034Z,29.43
2019-05-06T06:50:02.891Z,30.00
2019-05-06T06:52:32.684Z,30.20
2019-05-06T06:55:02.656Z,31.18
2019-05-06T06:57:42.597Z,30.12
2019-05-06T07:00:14.334Z,30.12
2019-05-06T07:02:53.875Z,30.81
2019-05-06T07:05:39.737Z,30.48
2019-05-06T07:08:08.962Z,30.77
2019-05-06T07:10:44.295Z,28.90
2019-05-06T07:13:14.746Z,29.74
2019-05-06T07:15:44.127Z,29.21
2019-05-06T07:18:13.851Z,29.64
2019-05-06T07:20:45.016Z,29.00
2019-05-06T07:23:27.962Z,28.09
2019-05-06T07:25:57.234Z,27.88
2019-05-06T07:28:26.526Z,27.95
2019-05-06T07:30:56.401Z,26.99
2019-05-06T07:33:25.763Z,26.84
2019-05-06T07:35:55.049Z,27.35
2019-05-06T07:38:24.278Z,27.67
2019-05-06T07:40:55.099Z,26.12
2019-05-06T07:43:35.082Z,26.03
2019-05-06T07:46:15.190Z,26.18
2019-05-06T07:48:44.528Z,26.24
2019-05-06T07:51:13.835Z,26.32
2019-05-06T07:53:43.014Z,25.72
2019-05-06T07:56:12.767Z,24.39
2019-05-06T07:58:43.306Z,23.75
2019-05-06T08:01:13.723Z,23.09
2019-05-06T08:03:43.065Z,22.80
2019-05-06T08:06:13.287Z,22.07
2019-05-06T08:08:43.438Z,20.59
2019-05-06T08:11:12.881Z,21.52
2019-05-06T08:13:43.526Z,21.68
2019-05-06T08:16:13.310Z,21.31
2019-05-06T08:18:42.788Z,20.92
2019-05-06T08:21:22.655Z,20.85
2019-05-06T08:23:55.906Z,20.33
2019-05-06T08:26:25.144Z,20.16
2019-05-06T08:28:54.517Z,21.46
2019-05-06T08:31:25.388Z,20.89
2019-05-06T08:33:54.578Z,20.35
2019-05-06T08:36:32.920Z,20.18
2019-05-06T08:39:06.148Z,21.18
2019-05-06T08:41:35.350Z,20.85
2019-05-06T08:44:04.708Z,20.74
2019-05-06T08:46:33.952Z,19.99
2019-05-06T08:49:03.598Z,20.12
2019-05-06T08:51:37.524Z,21.62
2019-05-06T08:54:08.340Z,20.77
2019-05-06T08:56:37.647Z,21.38
2019-05-06T08:59:06.894Z,18.85
2019-05-06T09:01:37.717Z,19.36
2019-05-06T09:04:12.334Z,19.02
2019-05-06T09:06:38.164Z,19.60
2019-05-06T09:09:08.699Z,20.15
2019-05-06T09:11:37.946Z,18.98
2019-05-06T09:14:09.827Z,19.20
2019-05-06T09:16:38.612Z,18.97
2019-05-06T09:19:07.977Z,18.43
2019-05-06T09:21:37.137Z,18.26
2019-05-06T09:24:06.389Z,18.75
2019-05-06T09:26:42.930Z,19.25
2019-05-06T09:29:18.881Z,18.54
2019-05-06T09:31:52.511Z,18.80
2019-05-06T09:34:43.110Z,18.33
2019-05-06T09:37:14.134Z,19.83
2019-05-06T09:39:45.201Z,20.39
2019-05-06T09:42:14.468Z,20.77
2019-05-06T09:44:44.994Z,19.95
2019-05-06T09:47:15.952Z,19.59
2019-05-06T09:49:46.631Z,19.64
2019-05-06T09:52:15.899Z,20.38
2019-05-06T09:54:53.591Z,19.29
2019-05-06T09:57:24.671Z,18.54
2019-05-06T09:59:53.844Z,19.47
2019-05-06T10:02:23.269Z,18.05
2019-05-06T10:04:52.448Z,18.25
2019-05-06T10:07:22.548Z,19.40
2019-05-06T10:09:52.631Z,19.24
2019-05-06T10:12:22.021Z,18.71
2019-05-06T10:14:53.186Z,18.87
2019-05-06T10:17:22.184Z,18.27
2019-05-06T10:19:51.427Z,19.74
2019-05-06T10:22:23.141Z,18.96
2019-05-06T10:24:52.276Z,20.05
2019-05-06T10:27:22.695Z,19.36
2019-05-06T10:30:05.992Z,18.31
2019-05-06T10:32:36.860Z,17.84
2019-05-06T10:35:09.074Z,17.26
2019-05-06T10:37:45.393Z,17.59
2019-05-06T10:40:23.551Z,17.54
2019-05-06T10:43:29.279Z,17.66
2019-05-06T10:46:01.093Z,17.38
2019-05-06T10:48:29.463Z,17.86
2019-05-06T10:51:18.424Z,18.10
2019-05-06T10:53:47.593Z,18.56
2019-05-06T10:56:27.548Z,18.23
2019-05-06T10:58:58.381Z,17.10
2019-05-06T11:01:42.668Z,16.92
2019-05-06T11:04:12.052Z,17.94
2019-05-06T11:06:42.995Z,17.80
2019-05-06T11:09:13.488Z,17.42
2019-05-06T11:11:42.968Z,18.59
2019-05-06T11:14:12.942Z,17.28
2019-05-06T11:16:42.266Z,17.73
2019-05-06T11:19:13.269Z,17.73
2019-05-06T11:21:44.997Z,16.96
2019-05-06T11:24:13.419Z,17.95
2019-05-06T11:26:42.989Z,17.63
2019-05-06T11:29:13.989Z,17.66
2019-05-06T11:31:47.662Z,17.87
2019-05-06T11:34:22.130Z,18.10
2019-05-06T11:36:55.803Z,17.45
2019-05-06T11:39:25.078Z,16.03
2019-05-06T11:42:14.984Z,16.32
2019-05-06T11:44:25.350Z,17.69
2019-05-06T11:46:54.653Z,17.52
2019-05-06T11:49:23.875Z,18.52
2019-05-06T11:51:53.071Z,18.15
2019-05-06T11:54:24.338Z,16.68
2019-05-06T11:56:58.177Z,17.42
2019-05-06T11:59:25.020Z,17.30
2019-05-06T12:01:58.356Z,17.61
2019-05-06T12:04:27.526Z,17.79
2019-05-06T12:07:10.052Z,17.16
2019-05-06T12:09:27.688Z,17.48
2019-05-06T12:11:56.985Z,18.51
2019-05-06T12:14:26.296Z,17.62
2019-05-06T12:16:55.547Z,17.85
2019-05-06T12:19:24.771Z,18.14
2019-05-06T12:21:53.936Z,17.25
2019-05-06T12:24:23.189Z,18.48
2019-05-06T12:26:52.420Z,18.00
2019-05-06T12:29:21.718Z,18.07
2019-05-06T12:31:53.044Z,17.85
2019-05-06T12:34:22.337Z,17.17
2019-05-06T12:36:53.277Z,19.19
2019-05-06T12:39:24.241Z,18.70
2019-05-06T12:42:00.622Z,18.35
2019-05-06T12:44:32.255Z,18.21
2019-05-06T12:47:09.132Z,17.80
2019-05-06T12:49:38.352Z,18.54
2019-05-06T12:52:07.602Z,17.47
2019-05-06T12:54:36.866Z,17.53
2019-05-06T12:57:06.135Z,17.61
2019-05-06T12:59:35.444Z,17.73
2019-05-06T13:02:04.694Z,18.43
2019-05-06T13:04:49.479Z,18.20
2019-05-06T13:07:05.465Z,17.54
2019-05-06T13:09:34.750Z,17.77
2019-05-06T13:12:04.298Z,17.72
2019-05-06T13:14:33.615Z,17.71
2019-05-06T13:17:02.957Z,17.74
2019-05-06T13:19:32.457Z,17.26
2019-05-06T13:22:03.560Z,17.29
2019-05-06T13:24:32.879Z,17.15
2019-05-06T13:27:02.692Z,16.72
2019-05-06T13:29:35.492Z,16.58
2019-05-06T13:32:06.718Z,17.12
2019-05-06T13:34:35.965Z,16.84
2019-05-06T13:37:05.410Z,17.37
2019-05-06T13:39:35.091Z,16.34
2019-05-06T13:42:06.800Z,16.95
2019-05-06T13:44:43.814Z,16.46
2019-05-06T13:47:17.468Z,16.37
2019-05-06T13:49:58.534Z,16.22
2019-05-06T13:52:32.732Z,16.43
2019-05-06T13:55:03.401Z,16.05
2019-05-06T13:57:35.297Z,16.23
2019-05-06T14:00:13.568Z,16.49
2019-05-06T14:02:53.122Z,16.96
2019-05-06T14:05:27.610Z,16.09
2019-05-06T14:08:04.964Z,17.61
2019-05-06T14:10:35.863Z,16.27
2019-05-06T14:13:09.395Z,16.80
2019-05-06T14:15:43.903Z,16.84
2019-05-06T14:18:16.773Z,16.75
2019-05-06T14:20:52.167Z,17.23
2019-05-06T14:23:23.570Z,16.66
2019-05-06T14:26:12.568Z,16.71
2019-05-06T14:29:02.860Z,16.48
2019-05-06T14:31:34.685Z,17.23
2019-05-06T14:34:06.276Z,17.48
2019-05-06T14:36:43.241Z,16.69
2019-05-06T14:39:24.569Z,17.05
2019-05-06T14:42:02.408Z,16.77
2019-05-06T14:44:35.932Z,16.00
2019-05-06T14:47:09.938Z,16.03
2019-05-06T14:49:45.672Z,15.89
2019-05-06T14:52:16.658Z,16.76
2019-05-06T14:54:53.517Z,16.80
2019-05-06T14:57:27.294Z,16.41
2019-05-06T14:59:58.451Z,16.87
2019-05-06T15:02:33.748Z,17.33
2019-05-06T15:05:04.482Z,17.35
2019-05-06T15:07:46.107Z,17.09
2019-05-06T15:10:23.270Z,17.88
2019-05-06T15:12:57.821Z,17.57
2019-05-06T15:15:38.081Z,17.71
2019-05-06T15:18:22.500Z,17.42
2019-05-06T15:20:56.081Z,16.98
2019-05-06T15:23:28.077Z,16.81
2019-05-06T15:25:59.491Z,17.23
2019-05-06T15:28:34.181Z,17.40
2019-05-06T15:31:06.242Z,17.64
2019-05-06T15:33:41.265Z,17.58
2019-05-06T15:36:22.314Z,17.18
2019-05-06T15:38:57.531Z,17.32
2019-05-06T15:41:32.723Z,17.37
2019-05-06T15:44:04.352Z,17.37
2019-05-06T15:46:33.732Z,18.07
2019-05-06T15:49:05.713Z,18.54
2019-05-06T15:51:42.827Z,18.12
2019-05-06T15:54:12.945Z,17.72
2019-05-06T15:56:46.674Z,18.08
2019-05-06T15:59:16.055Z,18.37
2019-05-06T16:01:45.406Z,18.24
2019-05-06T16:04:15.638Z,18.34
2019-05-06T16:06:45.051Z,18.64
2019-05-06T16:09:15.593Z,19.34
2019-05-06T16:11:44.954Z,19.21
2019-05-06T16:14:14.228Z,18.89
2019-05-06T16:16:43.742Z,18.43
2019-05-06T16:19:13.337Z,19.13
2019-05-06T16:21:45.099Z,18.79
2019-05-06T16:24:15.279Z,18.98
2019-05-06T16:26:45.482Z,18.23
2019-05-06T16:29:15.262Z,18.47
2019-05-06T16:31:44.740Z,18.20
2019-05-06T16:34:14.715Z,18.08
2019-05-06T16:36:44.195Z,18.09
2019-05-06T16:39:13.514Z,18.21
2019-05-06T16:41:44.762Z,18.74
2019-05-06T16:44:13.921Z,18.97
2019-05-06T16:46:43.316Z,18.50
2019-05-06T16:49:14.161Z,18.83
2019-05-06T16:51:44.147Z,19.06
2019-05-06T16:54:13.809Z,18.92
2019-05-06T16:57:03.392Z,18.92
2019-05-06T16:59:33.563Z,19.01
2019-05-06T17:02:04.714Z,19.31
2019-05-06T17:04:35.609Z,19.40
2019-05-06T17:07:05.075Z,18.94
2019-05-06T17:09:34.406Z,19.13
2019-05-06T17:12:04.657Z,19.37
2019-05-06T17:14:34.298Z,19.42
2019-05-06T17:17:03.693Z,19.44
2019-05-06T17:19:33.138Z,19.66
2019-05-06T17:22:03.166Z,19.83
2019-05-06T17:24:33.206Z,19.58
2019-05-06T17:27:02.897Z,19.98
2019-05-06T17:29:48.889Z,20.11
2019-05-06T17:32:33.125Z,20.70
2019-05-06T17:35:02.633Z,20.04
2019-05-06T17:37:52.550Z,20.66
2019-05-06T17:40:23.004Z,20.75
2019-05-06T17:42:53.263Z,20.45
2019-05-06T17:45:42.867Z,20.38
2019-05-06T17:48:19.051Z,20.58
2019-05-06T17:51:05.310Z,20.77
2019-05-06T17:53:36.377Z,20.89
2019-05-06T17:56:05.990Z,20.25
2019-05-06T17:58:35.304Z,20.66
2019-05-06T18:01:05.186Z,20.38
2019-05-06T18:03:34.634Z,20.41
2019-05-06T18:06:07.213Z,20.72
2019-05-06T18:08:35.049Z,20.72
2019-05-06T18:11:04.536Z,20.61
2019-05-06T18:13:33.799Z,20.51
2019-05-06T18:16:03.701Z,20.65
2019-05-06T18:18:33.211Z,20.70
2019-05-06T18:21:02.655Z,20.46
2019-05-06T18:23:33.572Z,20.47
2019-05-06T18:26:03.262Z,20.96
2019-05-06T18:28:32.837Z,21.25
2019-05-06T18:31:03.161Z,20.67
2019-05-06T18:33:32.956Z,20.68
2019-05-06T18:36:02.984Z,20.59
2019-05-06T18:38:33.826Z,20.45
2019-05-06T18:41:03.371Z,20.64
2019-05-06T18:43:33.467Z,20.75
2019-05-06T18:46:03.100Z,21.20
2019-05-06T18:48:35.122Z,21.39
2019-05-06T18:51:03.417Z,21.26
2019-05-06T18:53:33.504Z,21.93
2019-05-06T18:56:03.292Z,21.96
2019-05-06T18:58:33.225Z,21.90
2019-05-06T19:01:03.945Z,21.96
2019-05-06T19:03:53.486Z,22.25
2019-05-06T19:06:23.335Z,22.19
2019-05-06T19:08:54.527Z,22.25
2019-05-06T19:11:23.886Z,22.87
2019-05-06T19:13:53.130Z,23.26
2019-05-06T19:16:22.557Z,23.33
2019-05-06T19:18:52.344Z,23.13
2019-05-06T19:21:24.319Z,23.20
2019-05-06T19:23:54.824Z,23.11
2019-05-06T19:26:24.107Z,23.01
2019-05-06T19:28:53.510Z,23.04
2019-05-06T19:31:23.282Z,23.18
2019-05-06T19:33:52.815Z,23.26
2019-05-06T19:36:23.541Z,23.07
2019-05-06T19:38:53.125Z,22.97
2019-05-06T19:41:22.479Z,22.97
2019-05-06T19:43:52.411Z,22.77
2019-05-06T19:46:21.772Z,22.69
2019-05-06T19:48:52.394Z,22.74
2019-05-06T19:51:22.648Z,22.67
2019-05-06T19:53:51.973Z,22.88
2019-05-06T19:56:23.277Z,22.79
2019-05-06T19:58:52.714Z,22.66
2019-05-06T20:01:22.885Z,22.95
2019-05-06T20:03:52.759Z,22.96
2019-05-06T20:06:27.226Z,22.95
2019-05-06T20:08:58.071Z,22.87
2019-05-06T20:11:35.209Z,23.01
2019-05-06T20:14:04.520Z,23.34
2019-05-06T20:16:33.766Z,23.60
2019-05-06T20:19:03.198Z,23.49
2019-05-06T20:21:32.971Z,23.50
2019-05-06T20:24:02.464Z,23.48
2019-05-06T20:26:32.414Z,23.24
2019-05-06T20:29:02.328Z,23.16
2019-05-06T20:31:32.243Z,23.40
2019-05-06T20:34:02.245Z,23.33
2019-05-06T20:36:33.199Z,23.79
2019-05-06T20:39:02.828Z,23.53
2019-05-06T20:41:35.138Z,23.73
2019-05-06T20:44:04.615Z,23.87
2019-05-06T20:46:33.997Z,23.35
2019-05-06T20:49:04.407Z,23.49
2019-05-06T20:51:34.025Z,23.71
2019-05-06T20:54:03.530Z,23.88
2019-05-06T20:56:33.236Z,24.24
2019-05-06T20:59:02.883Z,24.26
2019-05-06T21:01:32.726Z,24.43
2019-05-06T21:04:22.909Z,24.36
2019-05-06T21:06:54.925Z,23.74
2019-05-06T21:09:32.113Z,23.71
2019-05-06T21:12:03.397Z,23.74
2019-05-06T21:14:34.617Z,23.51
2019-05-06T21:17:06.266Z,23.48
2019-05-06T21:19:37.091Z,23.68
2019-05-06T21:22:07.048Z,23.60
2019-05-06T21:24:43.060Z,23.40
2019-05-06T21:27:15.155Z,23.79
2019-05-06T21:29:47.392Z,23.86
2019-05-06T21:32:18.026Z,23.92
2019-05-06T21:34:52.517Z,23.69
2019-05-06T21:37:23.045Z,23.57
2019-05-06T21:39:54.012Z,23.68
2019-05-06T21:42:26.238Z,23.51
2019-05-06T21:44:59.169Z,23.72
2019-05-06T21:47:32.609Z,23.54
2019-05-06T21:50:03.767Z,23.36
2019-05-06T21:52:39.405Z,23.71
2019-05-06T21:55:06.777Z,23.54
2019-05-06T21:57:36.013Z,23.92
2019-05-06T22:00:09.260Z,23.33
2019-05-06T22:02:38.554Z,23.55
2019-05-06T22:05:08.160Z,23.55
2019-05-06T22:07:37.331Z,23.72
2019-05-06T22:10:07.385Z,23.95
2019-05-06T22:12:36.637Z,24.06
2019-05-06T22:15:06.216Z,24.08
2019-05-06T22:17:35.575Z,24.17
2019-05-06T22:20:05.548Z,24.04
2019-05-06T22:22:36.371Z,24.15
2019-05-06T22:25:06.390Z,24.20
2019-05-06T22:27:35.680Z,24.13
2019-05-06T22:30:07.580Z,24.32
2019-05-06T22:32:46.002Z,24.48
2019-05-06T22:35:16.305Z,24.59
2019-05-06T22:37:46.344Z,24.60
2019-05-06T22:40:15.853Z,24.62
2019-05-06T22:42:45.296Z,24.70
2019-05-06T22:45:15.972Z,24.83
2019-05-06T22:47:45.205Z,24.64
2019-05-06T22:50:14.425Z,24.82
2019-05-06T22:52:45.168Z,24.75
2019-05-06T22:55:14.563Z,24.89
2019-05-06T22:57:43.795Z,24.60
2019-05-06T23:00:16.463Z,24.66
2019-05-06T23:02:53.417Z,24.57
2019-05-06T23:05:23.174Z,24.44
2019-05-06T23:07:53.193Z,24.79
2019-05-06T23:10:24.867Z,24.85
2019-05-06T23:12:54.390Z,24.79
2019-05-06T23:15:23.787Z,24.89
2019-05-06T23:17:53.030Z,24.91
2019-05-06T23:20:24.413Z,24.83
2019-05-06T23:22:53.429Z,25.14
2019-05-06T23:25:22.691Z,25.14
2019-05-06T23:27:52.980Z,25.16
2019-05-06T23:30:23.623Z,25.22
2019-05-06T23:32:53.151Z,25.27
2019-05-06T23:35:22.406Z,25.33
2019-05-06T23:38:29.010Z,25.22
2019-05-06T23:41:35.091Z,25.47
2019-05-06T23:44:45.845Z,25.36
2019-05-06T23:47:49.282Z,25.65
2019-05-06T23:50:55.284Z,25.69
2019-05-06T23:54:03.078Z,25.84
2019-05-06T23:56:44.188Z,25.74
2019-05-06T23:59:18.168Z,25.57
